Antonello — IKVS — position and weather

sailwx.info

Track history (hours):
 
Tides and Currents Weather Stations Pressure Air Temp Water Temp Dewpoint Dewpoint Depression Visibility Wind Speed Wind Dir Waves Ship Positions

Antonello

Last reported at 2016-Aug-31 21:33 UTC. Time now 2016-Aug-31 21:45 UTC.
Position N 38°12' E 013°35'.

Length 70 m; draft 2.5 m.

Type: Ship. MMSI: 247422000.

Date/timePositionNaut miles runAvg speedWind from/ knotsBaromVisibWave heightAir tempDewpointWater temp
2016-Aug-31 21:33N 38°12' E 013°35'8 7.7
2016-Aug-31 20:33N 38°08' E 013°26'3 3.0
2016-Aug-31 19:33N 38°08' E 013°22'0 0.0
2016-Aug-31 18:32N 38°08' E 013°22'0 0.0
2016-Aug-31 17:32N 38°08' E 013°22'0 0.0
2016-Aug-31 16:31N 38°08' E 013°22'0 0.0
2016-Aug-31 15:34N 38°08' E 013°22'0 0.0
2016-Aug-31 14:33N 38°08' E 013°22'0 0.0
2016-Aug-31 13:32N 38°08' E 013°22'0 0.0
2016-Aug-31 12:32N 38°08' E 013°22'2 1.8
2016-Aug-31 11:33N 38°08' E 013°24'9 8.9
2016-Aug-31 10:33N 38°11' E 013°35'9 9.0
2016-Aug-31 09:33N 38°13' E 013°46'9 9.0
2016-Aug-31 08:33N 38°16' E 013°57'11 9.5
2016-Aug-31 07:25N 38°18' E 014°10'8 9.4
2016-Aug-31 06:31N 38°20' E 014°21'9 9.1
2016-Aug-31 05:33N 38°21' E 014°32'9 9.2
2016-Aug-31 04:33N 38°24' E 014°43'9 9.0
2016-Aug-31 03:30N 38°26' E 014°55'2 2.4
2016-Aug-31 02:33N 38°25' E 014°58'0 0.0
2016-Aug-30 18:33N 38°25' E 014°58'8 8.2
2016-Aug-30 17:33N 38°25' E 015°08'9 9.1
2016-Aug-30 16:33N 38°25' E 015°20'9 8.9
2016-Aug-30 15:33N 38°26' E 015°31'8 8.3
2016-Aug-30 14:33N 38°27' E 015°42'8 7.7
2016-Aug-30 13:33N 38°27' E 015°51'2 0.4
2016-Aug-30 08:23N 38°27' E 015°54'3 3.6
2016-Aug-30 07:33N 38°28' E 015°51'1 0.8
2016-Aug-30 06:33N 38°28' E 015°50'0 0.2
2016-Aug-30 05:33N 38°28' E 015°50'5 5.2
2016-Aug-30 04:33N 38°29' E 015°43'8 8.2
2016-Aug-30 03:33N 38°30' E 015°33'8 8.1
2016-Aug-30 02:33N 38°32' E 015°23'8 8.3
2016-Aug-30 01:33N 38°34' E 015°13'8 8.1
2016-Aug-30 00:33N 38°35' E 015°02'  
2016-Aug-27 08:29N 39°02' E 014°53'18 8.7
2016-Aug-27 06:28N 38°44' E 014°54'10 1.0
2016-Aug-26 19:30N 38°34' E 014°53'5 5.2
2016-Aug-26 18:34N 38°33' E 014°59'8 8.3
2016-Aug-26 17:33N 38°31' E 015°09'8 8.3
2016-Aug-26 16:34N 38°30' E 015°20'9 8.5
2016-Aug-26 15:33N 38°30' E 015°30'8 8.1
2016-Aug-26 14:34N 38°29' E 015°41'8 8.4
2016-Aug-26 13:33N 38°27' E 015°51'2 0.2
2016-Aug-26 06:33N 38°29' E 015°51'11 5.4
2016-Aug-26 04:33N 38°28' E 015°37'9 9.1
2016-Aug-26 03:33N 38°29' E 015°26'9 9.1
2016-Aug-26 02:33N 38°31' E 015°14'10 9.3
2016-Aug-26 01:32N 38°32' E 015°02'8 0.8
2016-Aug-25 15:22N 38°34' E 014°53'46 8.0
2016-Aug-25 09:32N 38°19' E 013°56'8 7.8
2016-Aug-25 08:33N 38°16' E 013°47'8 7.8
2016-Aug-25 07:33N 38°13' E 013°38'8 7.9
2016-Aug-25 06:33N 38°10' E 013°29'6 3.0
2016-Aug-25 04:33N 38°08' E 013°22'0 0.0
2016-Aug-25 03:32N 38°08' E 013°22'0 0.0
2016-Aug-25 02:32N 38°08' E 013°22'0 0.0
2016-Aug-25 01:31N 38°08' E 013°22'0 0.0
2016-Aug-25 00:33N 38°08' E 013°22'0 0.0
2016-Aug-24 23:33N 38°08' E 013°22'0 0.0
2016-Aug-24 22:32N 38°08' E 013°22'0 0.0
2016-Aug-24 21:32N 38°08' E 013°22'0 0.0
2016-Aug-24 20:31N 38°08' E 013°22'0 0.0
2016-Aug-24 19:33N 38°08' E 013°22'0 0.0
2016-Aug-24 18:33N 38°08' E 013°22'0 0.0
2016-Aug-24 17:32N 38°08' E 013°22'3 3.1
2016-Aug-24 16:33N 38°10' E 013°25'9 9.2
2016-Aug-24 15:33N 38°14' E 013°36'9 9.4
2016-Aug-24 14:33N 38°18' E 013°47'8 0.2
2016-Aug-23 01:27N 38°19' E 013°56'7 7.9
2016-Aug-23 00:33N 38°16' E 013°48'8 8.2
2016-Aug-22 23:33N 38°13' E 013°38'8 8.0
2016-Aug-22 22:33N 38°10' E 013°29'6 5.8
2016-Aug-22 21:32N 38°08' E 013°22'0 0.0
2016-Aug-22 20:32N 38°08' E 013°22'0 0.0
2016-Aug-22 19:28N 38°08' E 013°22'0 0.0
2016-Aug-22 18:31N 38°08' E 013°22'0 0.0
2016-Aug-22 17:33N 38°08' E 013°22'0 0.0
2016-Aug-22 16:33N 38°08' E 013°22'0 0.0
2016-Aug-22 15:32N 38°08' E 013°22'0 0.0
2016-Aug-22 14:25N 38°08' E 013°22'0 0.0
2016-Aug-22 13:31N 38°08' E 013°22'0 0.0
2016-Aug-22 12:33N 38°08' E 013°22'0 0.0
2016-Aug-22 11:32N 38°08' E 013°22'0 0.0
2016-Aug-22 10:32N 38°08' E 013°22'0 0.0
2016-Aug-22 09:31N 38°08' E 013°22'0 0.0
2016-Aug-22 08:31N 38°08' E 013°22'0 0.0
2016-Aug-22 07:33N 38°08' E 013°22'4 4.3
2016-Aug-22 06:33N 38°11' E 013°25'9 8.5
2016-Aug-22 05:33N 38°14' E 013°35'11 9.9
2016-Aug-22 04:28N 38°18' E 013°48'9 9.8
2016-Aug-22 03:31N 38°21' E 013°59'10 9.9
2016-Aug-22 02:32N 38°25' E 014°11'32 9.6
2016-Aug-21 23:12N 38°37' E 014°48'6 9.6
2016-Aug-21 22:32N 38°39' E 014°56'  
Track history (hours):
 
Tides and Currents Weather Stations Pressure Air Temp Water Temp Dewpoint Dewpoint Depression Visibility Wind Speed Wind Dir Waves Ship Positions

Antonello

Last reported at 2016-Aug-31 21:33 UTC. Time now 2016-Aug-31 21:45 UTC.
Position N 38°12' E 013°35'.

Length 70 m; draft 2.5 m.

Type: Ship. MMSI: 247422000.

Date/timePositionNaut miles runAvg speedWind from/ knotsBaromVisibWave heightAir tempDewpointWater temp
2016-Aug-31 21:33N 38°12' E 013°35'8 7.7
2016-Aug-31 20:33N 38°08' E 013°26'3 3.0
2016-Aug-31 19:33N 38°08' E 013°22'0 0.0
2016-Aug-31 18:32N 38°08' E 013°22'0 0.0
2016-Aug-31 17:32N 38°08' E 013°22'0 0.0
2016-Aug-31 16:31N 38°08' E 013°22'0 0.0
2016-Aug-31 15:34N 38°08' E 013°22'0 0.0
2016-Aug-31 14:33N 38°08' E 013°22'0 0.0
2016-Aug-31 13:32N 38°08' E 013°22'0 0.0
2016-Aug-31 12:32N 38°08' E 013°22'2 1.8
2016-Aug-31 11:33N 38°08' E 013°24'9 8.9
2016-Aug-31 10:33N 38°11' E 013°35'9 9.0
2016-Aug-31 09:33N 38°13' E 013°46'9 9.0
2016-Aug-31 08:33N 38°16' E 013°57'11 9.5
2016-Aug-31 07:25N 38°18' E 014°10'8 9.4
2016-Aug-31 06:31N 38°20' E 014°21'9 9.1
2016-Aug-31 05:33N 38°21' E 014°32'9 9.2
2016-Aug-31 04:33N 38°24' E 014°43'9 9.0
2016-Aug-31 03:30N 38°26' E 014°55'2 2.4
2016-Aug-31 02:33N 38°25' E 014°58'0 0.0
2016-Aug-30 18:33N 38°25' E 014°58'8 8.2
2016-Aug-30 17:33N 38°25' E 015°08'9 9.1
2016-Aug-30 16:33N 38°25' E 015°20'9 8.9
2016-Aug-30 15:33N 38°26' E 015°31'8 8.3
2016-Aug-30 14:33N 38°27' E 015°42'8 7.7
2016-Aug-30 13:33N 38°27' E 015°51'2 0.4
2016-Aug-30 08:23N 38°27' E 015°54'3 3.6
2016-Aug-30 07:33N 38°28' E 015°51'1 0.8
2016-Aug-30 06:33N 38°28' E 015°50'0 0.2
2016-Aug-30 05:33N 38°28' E 015°50'5 5.2
2016-Aug-30 04:33N 38°29' E 015°43'8 8.2
2016-Aug-30 03:33N 38°30' E 015°33'8 8.1
2016-Aug-30 02:33N 38°32' E 015°23'8 8.3
2016-Aug-30 01:33N 38°34' E 015°13'8 8.1
2016-Aug-30 00:33N 38°35' E 015°02'  
2016-Aug-27 08:29N 39°02' E 014°53'18 8.7
2016-Aug-27 06:28N 38°44' E 014°54'10 1.0
2016-Aug-26 19:30N 38°34' E 014°53'5 5.2
2016-Aug-26 18:34N 38°33' E 014°59'8 8.3
2016-Aug-26 17:33N 38°31' E 015°09'8 8.3
2016-Aug-26 16:34N 38°30' E 015°20'9 8.5
2016-Aug-26 15:33N 38°30' E 015°30'8 8.1
2016-Aug-26 14:34N 38°29' E 015°41'8 8.4
2016-Aug-26 13:33N 38°27' E 015°51'2 0.2
2016-Aug-26 06:33N 38°29' E 015°51'11 5.4
2016-Aug-26 04:33N 38°28' E 015°37'9 9.1
2016-Aug-26 03:33N 38°29' E 015°26'9 9.1
2016-Aug-26 02:33N 38°31' E 015°14'10 9.3
2016-Aug-26 01:32N 38°32' E 015°02'8 0.8
2016-Aug-25 15:22N 38°34' E 014°53'46 8.0
2016-Aug-25 09:32N 38°19' E 013°56'8 7.8
2016-Aug-25 08:33N 38°16' E 013°47'8 7.8
2016-Aug-25 07:33N 38°13' E 013°38'8 7.9
2016-Aug-25 06:33N 38°10' E 013°29'6 3.0
2016-Aug-25 04:33N 38°08' E 013°22'0 0.0
2016-Aug-25 03:32N 38°08' E 013°22'0 0.0
2016-Aug-25 02:32N 38°08' E 013°22'0 0.0
2016-Aug-25 01:31N 38°08' E 013°22'0 0.0
2016-Aug-25 00:33N 38°08' E 013°22'0 0.0
2016-Aug-24 23:33N 38°08' E 013°22'0 0.0
2016-Aug-24 22:32N 38°08' E 013°22'0 0.0
2016-Aug-24 21:32N 38°08' E 013°22'0 0.0
2016-Aug-24 20:31N 38°08' E 013°22'0 0.0
2016-Aug-24 19:33N 38°08' E 013°22'0 0.0
2016-Aug-24 18:33N 38°08' E 013°22'0 0.0
2016-Aug-24 17:32N 38°08' E 013°22'3 3.1
2016-Aug-24 16:33N 38°10' E 013°25'9 9.2
2016-Aug-24 15:33N 38°14' E 013°36'9 9.4
2016-Aug-24 14:33N 38°18' E 013°47'8 0.2
2016-Aug-23 01:27N 38°19' E 013°56'7 7.9
2016-Aug-23 00:33N 38°16' E 013°48'8 8.2
2016-Aug-22 23:33N 38°13' E 013°38'8 8.0
2016-Aug-22 22:33N 38°10' E 013°29'6 5.8
2016-Aug-22 21:32N 38°08' E 013°22'0 0.0
2016-Aug-22 20:32N 38°08' E 013°22'0 0.0
2016-Aug-22 19:28N 38°08' E 013°22'0 0.0
2016-Aug-22 18:31N 38°08' E 013°22'0 0.0
2016-Aug-22 17:33N 38°08' E 013°22'0 0.0
2016-Aug-22 16:33N 38°08' E 013°22'0 0.0
2016-Aug-22 15:32N 38°08' E 013°22'0 0.0
2016-Aug-22 14:25N 38°08' E 013°22'0 0.0
2016-Aug-22 13:31N 38°08' E 013°22'0 0.0
2016-Aug-22 12:33N 38°08' E 013°22'0 0.0
2016-Aug-22 11:32N 38°08' E 013°22'0 0.0
2016-Aug-22 10:32N 38°08' E 013°22'0 0.0
2016-Aug-22 09:31N 38°08' E 013°22'0 0.0
2016-Aug-22 08:31N 38°08' E 013°22'0 0.0
2016-Aug-22 07:33N 38°08' E 013°22'4 4.3
2016-Aug-22 06:33N 38°11' E 013°25'9 8.5
2016-Aug-22 05:33N 38°14' E 013°35'11 9.9
2016-Aug-22 04:28N 38°18' E 013°48'9 9.8
2016-Aug-22 03:31N 38°21' E 013°59'10 9.9
2016-Aug-22 02:32N 38°25' E 014°11'32 9.6
2016-Aug-21 23:12N 38°37' E 014°48'6 9.6
2016-Aug-21 22:32N 38°39' E 014°56'  

Dump ship's entire track history